createdAt,value
2023-04-04T00:00:16.556Z,2.30
2023-04-04T00:02:18.238Z,1.55
2023-04-04T00:04:20.020Z,1.65
2023-04-04T00:06:21.837Z,1.60
2023-04-04T00:08:23.946Z,2.10
2023-04-04T00:10:25.771Z,1.13
2023-04-04T00:12:28.583Z,2.22
2023-04-04T00:14:32.273Z,1.77
2023-04-04T00:16:34.342Z,2.10
2023-04-04T00:18:36.575Z,1.92
2023-04-04T00:20:38.554Z,1.35
2023-04-04T00:22:41.287Z,1.98
2023-04-04T00:24:42.945Z,2.15
2023-04-04T00:26:44.686Z,1.45
2023-04-04T00:28:46.359Z,1.80
2023-04-04T00:30:48.836Z,2.13
2023-04-04T00:32:51.952Z,1.73
2023-04-04T00:34:54.302Z,1.75
2023-04-04T00:36:56.191Z,1.65
2023-04-04T00:38:57.871Z,1.98
2023-04-04T00:40:59.551Z,1.70
2023-04-04T00:43:01.580Z,2.38
2023-04-04T00:45:03.376Z,1.52
2023-04-04T00:47:05.090Z,1.70
2023-04-04T00:49:07.270Z,1.73
2023-04-04T00:51:09.233Z,1.63
2023-04-04T00:53:11.077Z,1.70
2023-04-04T00:55:12.862Z,2.67
2023-04-04T00:57:14.677Z,2.15
2023-04-04T00:59:16.838Z,1.63
2023-04-04T01:01:18.657Z,1.60
2023-04-04T01:03:20.447Z,2.45
2023-04-04T01:05:22.244Z,1.55
2023-04-04T01:07:24.153Z,2.25
2023-04-04T01:09:26.200Z,1.85
2023-04-04T01:11:28.502Z,1.92
2023-04-04T01:13:33.137Z,1.80
2023-04-04T01:15:34.890Z,1.95
2023-04-04T01:17:37.658Z,1.40
2023-04-04T01:19:47.295Z,2.47
2023-04-04T01:21:49.449Z,2.03
2023-04-04T01:24:03.942Z,2.15
2023-04-04T01:26:06.244Z,2.13
2023-04-04T01:28:08.325Z,2.85
2023-04-04T01:30:10.653Z,2.35
2023-04-04T01:32:30.005Z,2.13
2023-04-04T01:34:41.139Z,1.90
2023-04-04T01:37:03.295Z,2.08
2023-04-04T01:39:27.950Z,2.38
2023-04-04T01:41:33.394Z,1.90
2023-04-04T01:43:37.776Z,1.52
2023-04-04T01:45:39.644Z,1.63
2023-04-04T01:47:41.854Z,1.77
2023-04-04T01:49:43.608Z,2.08
2023-04-04T01:51:46.471Z,2.38
2023-04-04T01:53:48.286Z,2.03
2023-04-04T01:55:50.013Z,2.08
2023-04-04T01:57:51.684Z,2.22
2023-04-04T01:59:53.366Z,1.80
2023-04-04T02:01:55.135Z,1.80
2023-04-04T02:03:56.956Z,1.60
2023-04-04T02:05:58.720Z,2.92
2023-04-04T02:08:02.090Z,1.65
2023-04-04T02:10:04.471Z,2.47
2023-04-04T02:12:06.539Z,1.83
2023-04-04T02:14:09.172Z,2.40
2023-04-04T02:16:11.214Z,2.38
2023-04-04T02:18:12.992Z,1.73
2023-04-04T02:20:20.888Z,1.88
2023-04-04T02:22:22.579Z,2.28
2023-04-04T02:24:24.320Z,2.67
2023-04-04T02:26:26.221Z,1.83
2023-04-04T02:28:31.577Z,1.77
2023-04-04T02:30:33.307Z,2.13
2023-04-04T02:32:35.069Z,2.22
2023-04-04T02:34:37.786Z,2.35
2023-04-04T02:36:39.519Z,2.25
2023-04-04T02:38:41.567Z,2.20
2023-04-04T02:40:45.928Z,2.83
2023-04-04T02:42:51.219Z,1.90
2023-04-04T02:44:53.264Z,2.83
2023-04-04T02:46:55.061Z,2.10
2023-04-04T02:48:57.596Z,2.33
2023-04-04T02:50:59.343Z,2.20
2023-04-04T02:53:01.560Z,2.50
2023-04-04T02:55:04.373Z,2.00
2023-04-04T02:57:07.115Z,1.90
2023-04-04T02:59:09.304Z,1.83
2023-04-04T03:01:11.050Z,2.37
2023-04-04T03:03:12.988Z,2.60
2023-04-04T03:05:14.834Z,2.43
2023-04-04T03:07:16.657Z,2.50
2023-04-04T03:09:18.848Z,2.97
2023-04-04T03:11:21.601Z,2.43
2023-04-04T03:13:23.467Z,2.00
2023-04-04T03:15:26.723Z,2.40
2023-04-04T03:17:29.392Z,2.33
2023-04-04T03:19:31.186Z,2.77
2023-04-04T03:21:32.949Z,2.27
2023-04-04T03:23:35.142Z,2.87
2023-04-04T03:25:37.109Z,2.00
2023-04-04T03:27:40.018Z,2.17
2023-04-04T03:29:42.290Z,2.33
2023-04-04T03:31:44.037Z,2.80
2023-04-04T03:33:45.760Z,2.43
2023-04-04T03:35:47.829Z,2.73
2023-04-04T03:37:49.518Z,2.10
2023-04-04T03:39:51.361Z,3.13
2023-04-04T03:41:53.076Z,2.53
2023-04-04T03:43:54.806Z,2.50
2023-04-04T03:46:03.674Z,2.83
2023-04-04T03:48:05.694Z,2.67
2023-04-04T03:50:08.031Z,3.50
2023-04-04T03:52:09.850Z,2.57
2023-04-04T03:54:12.334Z,2.97
2023-04-04T03:56:14.041Z,2.60
2023-04-04T03:58:15.788Z,2.40
2023-04-04T04:00:17.618Z,2.67
2023-04-04T04:02:19.388Z,2.13
2023-04-04T04:04:21.348Z,2.13
2023-04-04T04:06:23.295Z,2.40
2023-04-04T04:08:25.334Z,3.07
2023-04-04T04:10:27.560Z,2.87
2023-04-04T04:12:29.572Z,2.47
2023-04-04T04:14:31.422Z,2.53
2023-04-04T04:16:33.321Z,2.43
2023-04-04T04:18:35.219Z,2.90
2023-04-04T04:20:36.997Z,2.50
2023-04-04T04:22:38.993Z,2.70
2023-04-04T04:24:41.991Z,3.27
2023-04-04T04:26:44.060Z,2.97
2023-04-04T04:28:48.337Z,2.30
2023-04-04T04:30:50.194Z,2.47
2023-04-04T04:32:51.978Z,2.47
2023-04-04T04:34:53.840Z,2.40
2023-04-04T04:36:55.532Z,2.63
2023-04-04T04:38:57.162Z,2.30
2023-04-04T04:40:59.016Z,2.70
2023-04-04T04:43:01.135Z,2.80
2023-04-04T04:45:03.274Z,1.93
2023-04-04T04:47:05.165Z,2.97
2023-04-04T04:49:07.027Z,2.43
2023-04-04T04:51:08.954Z,1.90
2023-04-04T04:53:10.850Z,2.20
2023-04-04T04:55:12.690Z,1.83
2023-04-04T04:57:14.384Z,2.30
2023-04-04T04:59:16.479Z,2.37
2023-04-04T05:01:18.404Z,2.63
2023-04-04T05:03:20.225Z,2.90
2023-04-04T05:05:21.945Z,2.93
2023-04-04T05:07:23.896Z,2.07
2023-04-04T05:09:25.637Z,2.93
2023-04-04T05:11:27.373Z,2.50
2023-04-04T05:13:32.219Z,3.23
2023-04-04T05:15:36.340Z,3.20
2023-04-04T05:17:42.425Z,2.70
2023-04-04T05:19:45.777Z,4.77
2023-04-04T05:21:50.584Z,2.50
2023-04-04T05:24:05.370Z,3.23
2023-04-04T05:26:10.809Z,2.63
2023-04-04T05:28:16.570Z,2.80
2023-04-04T05:30:23.217Z,2.40
2023-04-04T05:32:25.870Z,3.13
2023-04-04T05:34:33.851Z,3.10
2023-04-04T05:36:40.483Z,2.37
2023-04-04T05:38:46.967Z,2.93
2023-04-04T05:40:56.779Z,2.63
2023-04-04T05:43:05.491Z,2.70
2023-04-04T05:45:13.220Z,2.63
2023-04-04T05:47:17.072Z,2.60
2023-04-04T05:49:22.658Z,3.27
2023-04-04T05:51:28.436Z,3.37
2023-04-04T05:53:34.544Z,2.90
2023-04-04T05:55:38.244Z,3.13
2023-04-04T05:57:52.987Z,2.27
2023-04-04T05:59:57.550Z,3.47
2023-04-04T06:02:07.924Z,2.70
2023-04-04T06:04:14.973Z,2.70
2023-04-04T06:06:20.974Z,2.67
2023-04-04T06:08:26.790Z,2.37
2023-04-04T06:10:32.223Z,2.15
2023-04-04T06:12:38.271Z,3.03
2023-04-04T06:14:48.202Z,2.10
2023-04-04T06:16:52.413Z,2.10
2023-04-04T06:18:58.465Z,2.35
2023-04-04T06:21:03.121Z,2.15
2023-04-04T06:23:10.613Z,2.67
2023-04-04T06:25:14.618Z,2.13
2023-04-04T06:27:16.548Z,2.25
2023-04-04T06:29:20.009Z,2.35
2023-04-04T06:31:21.807Z,2.10
2023-04-04T06:33:23.764Z,2.05
2023-04-04T06:35:25.672Z,2.22
2023-04-04T06:37:38.801Z,2.30
2023-04-04T06:39:41.184Z,1.95
2023-04-04T06:41:49.452Z,2.30
2023-04-04T06:43:52.142Z,2.05
2023-04-04T06:46:02.774Z,2.20
2023-04-04T06:48:04.939Z,2.33
2023-04-04T06:50:07.806Z,2.50
2023-04-04T06:52:09.810Z,1.75
2023-04-04T06:54:12.668Z,1.92
2023-04-04T06:56:14.923Z,1.83
2023-04-04T06:58:23.875Z,1.60
2023-04-04T07:00:27.860Z,1.88
2023-04-04T07:02:30.244Z,1.83
2023-04-04T07:04:35.894Z,2.28
2023-04-04T07:06:38.421Z,1.88
2023-04-04T07:08:49.525Z,2.25
2023-04-04T07:10:52.461Z,1.95
2023-04-04T07:12:55.197Z,2.78
2023-04-04T07:14:58.106Z,2.05
2023-04-04T07:17:23.699Z,2.42
2023-04-04T07:19:39.923Z,1.80
2023-04-04T07:21:45.364Z,2.05
2023-04-04T07:23:47.994Z,2.13
2023-04-04T07:25:49.683Z,1.98
2023-04-04T07:28:02.285Z,1.88
2023-04-04T07:30:08.419Z,1.70
2023-04-04T07:32:10.296Z,1.88
2023-04-04T07:34:12.099Z,1.85
2023-04-04T07:36:14.508Z,2.58
2023-04-04T07:38:16.470Z,4.55
2023-04-04T07:40:18.566Z,2.60
2023-04-04T07:42:23.370Z,2.38
2023-04-04T07:44:27.151Z,2.15
2023-04-04T07:46:28.956Z,2.00
2023-04-04T07:48:30.777Z,2.30
2023-04-04T07:50:32.546Z,2.35
2023-04-04T07:52:34.551Z,2.83
2023-04-04T07:54:36.476Z,2.00
2023-04-04T07:56:40.148Z,1.95
2023-04-04T07:58:42.255Z,2.08
2023-04-04T08:00:44.356Z,2.10
2023-04-04T08:02:46.142Z,1.88
2023-04-04T08:04:48.074Z,1.80
2023-04-04T08:06:49.892Z,2.35
2023-04-04T08:08:52.395Z,1.58
2023-04-04T08:10:54.408Z,1.48
2023-04-04T08:12:56.185Z,2.25
2023-04-04T08:14:58.074Z,1.65
2023-04-04T08:16:59.857Z,2.72
2023-04-04T08:19:03.124Z,1.70
2023-04-04T08:21:05.014Z,1.80
2023-04-04T08:23:06.692Z,1.88
2023-04-04T08:25:10.021Z,1.95
2023-04-04T08:27:12.188Z,2.10
2023-04-04T08:29:13.952Z,3.55
2023-04-04T08:31:15.919Z,1.73
2023-04-04T08:33:17.915Z,2.33
2023-04-04T08:35:19.614Z,1.60
2023-04-04T08:37:21.836Z,1.95
2023-04-04T08:39:23.666Z,1.73
2023-04-04T08:41:25.458Z,1.55
2023-04-04T08:43:27.614Z,2.25
2023-04-04T08:45:30.968Z,2.33
2023-04-04T08:47:33.904Z,2.38
2023-04-04T08:49:39.710Z,2.53
2023-04-04T08:51:44.761Z,2.08
2023-04-04T08:53:47.047Z,1.70
2023-04-04T08:55:49.010Z,2.00
2023-04-04T08:57:51.147Z,2.17
2023-04-04T08:59:53.489Z,2.15
2023-04-04T09:02:04.914Z,1.85
2023-04-04T09:04:06.747Z,2.10
2023-04-04T09:06:13.276Z,2.83
2023-04-04T09:08:22.254Z,2.55
2023-04-04T09:10:30.254Z,2.00
2023-04-04T09:12:35.961Z,2.15
2023-04-04T09:14:43.335Z,1.92
2023-04-04T09:16:47.013Z,2.22
2023-04-04T09:18:54.661Z,2.05
2023-04-04T09:20:56.813Z,1.75
2023-04-04T09:22:58.583Z,1.65
2023-04-04T09:25:00.480Z,1.90
2023-04-04T09:27:02.470Z,1.73
2023-04-04T09:29:04.390Z,1.83
2023-04-04T09:31:18.983Z,2.13
2023-04-04T09:33:22.033Z,1.85
2023-04-04T09:35:23.811Z,1.58
2023-04-04T09:37:25.584Z,2.50
2023-04-04T09:39:27.378Z,2.35
2023-04-04T09:41:30.114Z,2.05
2023-04-04T09:43:34.412Z,1.90
2023-04-04T09:45:40.662Z,1.75
2023-04-04T09:47:42.997Z,2.30
2023-04-04T09:49:44.758Z,2.83
2023-04-04T09:51:49.500Z,2.75
2023-04-04T09:53:51.971Z,2.20
2023-04-04T09:55:57.538Z,2.70
2023-04-04T09:57:59.265Z,2.25
2023-04-04T10:00:02.693Z,2.88
2023-04-04T10:02:08.999Z,2.20
2023-04-04T10:04:10.730Z,2.45
2023-04-04T10:06:12.520Z,2.25
2023-04-04T10:08:16.266Z,2.13
2023-04-04T10:10:18.270Z,2.10
2023-04-04T10:12:24.823Z,2.13
2023-04-04T10:14:35.128Z,2.55
2023-04-04T10:16:38.354Z,2.05
2023-04-04T10:18:40.459Z,2.92
2023-04-04T10:20:42.715Z,2.17
2023-04-04T10:22:45.504Z,2.17
2023-04-04T10:24:47.418Z,2.42
2023-04-04T10:26:49.160Z,2.00
2023-04-04T10:28:50.859Z,1.92
2023-04-04T10:31:07.573Z,1.77
2023-04-04T10:33:24.834Z,1.80
2023-04-04T10:35:28.489Z,1.95
2023-04-04T10:37:34.484Z,2.17
2023-04-04T10:39:45.499Z,2.28
2023-04-04T10:41:51.321Z,3.00
2023-04-04T10:43:56.914Z,2.63
2023-04-04T10:46:06.447Z,1.85
2023-04-04T10:48:10.330Z,1.90
2023-04-04T10:50:12.718Z,2.40
2023-04-04T10:52:16.638Z,1.70
2023-04-04T10:54:18.790Z,1.90
2023-04-04T10:56:21.646Z,1.80
2023-04-04T10:58:23.513Z,1.70
2023-04-04T11:00:26.284Z,1.63
2023-04-04T11:02:52.175Z,1.75
2023-04-04T11:05:15.590Z,1.77
2023-04-04T11:07:17.742Z,1.98
2023-04-04T11:09:47.338Z,1.98
2023-04-04T11:12:10.777Z,1.80
2023-04-04T11:14:12.622Z,2.55
2023-04-04T11:16:15.926Z,1.83
2023-04-04T11:18:32.520Z,2.10
2023-04-04T11:20:37.891Z,2.30
2023-04-04T11:22:42.850Z,2.00
2023-04-04T11:24:44.881Z,2.60
2023-04-04T11:26:47.339Z,2.17
2023-04-04T11:28:49.119Z,2.17
2023-04-04T11:31:32.772Z,2.58
2023-04-04T11:34:08.022Z,1.85
2023-04-04T11:36:49.110Z,1.95
2023-04-04T11:38:50.865Z,1.95
2023-04-04T11:40:54.837Z,2.60
2023-04-04T11:43:02.866Z,2.05
2023-04-04T11:45:07.170Z,1.65
2023-04-04T11:47:10.962Z,2.20
2023-04-04T11:49:12.829Z,2.22
2023-04-04T11:51:14.942Z,1.85
2023-04-04T11:53:17.696Z,1.70
2023-04-04T11:55:21.821Z,1.83
2023-04-04T11:57:23.623Z,1.95
2023-04-04T11:59:25.346Z,2.55
2023-04-04T12:01:27.225Z,2.30
2023-04-04T12:03:29.301Z,2.20
2023-04-04T12:05:31.656Z,1.95
2023-04-04T12:07:35.364Z,2.13
2023-04-04T12:09:37.464Z,2.53
2023-04-04T12:11:45.357Z,2.30
2023-04-04T12:13:48.994Z,1.65
2023-04-04T12:15:51.232Z,2.30
2023-04-04T12:17:53.133Z,1.88
2023-04-04T12:19:54.805Z,1.48
2023-04-04T12:21:58.180Z,2.58
2023-04-04T12:24:00.146Z,2.10
2023-04-04T12:26:04.087Z,2.13
2023-04-04T12:28:07.226Z,2.25
2023-04-04T12:30:15.706Z,2.03
2023-04-04T12:32:17.932Z,2.10
2023-04-04T12:34:22.620Z,1.90
2023-04-04T12:36:29.897Z,1.67
2023-04-04T12:38:32.117Z,1.60
2023-04-04T12:40:37.406Z,3.22
2023-04-04T12:42:39.166Z,1.50
2023-04-04T12:44:40.919Z,1.85
2023-04-04T12:46:42.688Z,1.63
2023-04-04T12:48:44.810Z,2.05
2023-04-04T12:51:00.472Z,2.03
2023-04-04T12:53:24.369Z,2.30
2023-04-04T12:55:31.659Z,1.90
2023-04-04T12:57:34.221Z,2.28
2023-04-04T12:59:36.953Z,2.08
2023-04-04T13:01:38.894Z,2.20
2023-04-04T13:03:41.800Z,2.20
2023-04-04T13:05:44.717Z,1.90
2023-04-04T13:07:46.529Z,1.85
2023-04-04T13:09:52.973Z,1.70
2023-04-04T13:12:02.139Z,2.30
2023-04-04T13:14:04.397Z,2.05
2023-04-04T13:16:11.918Z,2.15
2023-04-04T13:18:25.124Z,2.45
2023-04-04T13:20:26.901Z,2.40
2023-04-04T13:22:36.943Z,2.78
2023-04-04T13:24:39.871Z,2.35
2023-04-04T13:26:42.584Z,2.10
2023-04-04T13:28:44.377Z,1.92
2023-04-04T13:30:49.581Z,2.05
2023-04-04T13:32:51.804Z,2.13
2023-04-04T13:34:53.524Z,2.13
2023-04-04T13:36:56.593Z,1.60
2023-04-04T13:38:58.375Z,1.63
2023-04-04T13:41:00.741Z,3.03
2023-04-04T13:43:02.813Z,1.88
2023-04-04T13:45:04.805Z,2.10
2023-04-04T13:47:06.594Z,2.40
2023-04-04T13:49:08.273Z,2.17
2023-04-04T13:51:09.933Z,2.13
2023-04-04T13:53:12.308Z,1.67
2023-04-04T13:55:14.181Z,2.20
2023-04-04T13:57:16.093Z,2.03
2023-04-04T13:59:17.935Z,2.10
2023-04-04T14:01:21.683Z,1.58
2023-04-04T14:03:24.148Z,1.83
2023-04-04T14:05:25.865Z,1.80
2023-04-04T14:07:27.870Z,2.40
2023-04-04T14:09:29.571Z,2.30
2023-04-04T14:11:31.406Z,2.45
2023-04-04T14:13:33.333Z,2.20
2023-04-04T14:15:35.073Z,2.10
2023-04-04T14:17:36.789Z,1.67
2023-04-04T14:19:39.160Z,2.03
2023-04-04T14:21:41.033Z,2.20
2023-04-04T14:23:42.725Z,1.60
2023-04-04T14:25:44.402Z,2.20
2023-04-04T14:27:46.316Z,1.92
2023-04-04T14:29:48.347Z,2.65
2023-04-04T14:31:50.323Z,2.30
2023-04-04T14:33:51.988Z,1.98
2023-04-04T14:35:53.839Z,1.92
2023-04-04T14:37:55.994Z,2.33
2023-04-04T14:39:57.836Z,1.90
2023-04-04T14:42:00.024Z,2.03
2023-04-04T14:44:01.710Z,2.28
2023-04-04T14:46:03.385Z,1.80
2023-04-04T14:48:05.544Z,2.28
2023-04-04T14:50:08.296Z,2.60
2023-04-04T14:52:10.177Z,1.75
2023-04-04T14:54:12.021Z,1.92
2023-04-04T14:56:13.736Z,1.92
2023-04-04T14:58:15.529Z,2.17
2023-04-04T15:00:20.749Z,2.03
2023-04-04T15:02:22.605Z,2.47
2023-04-04T15:04:24.355Z,2.08
2023-04-04T15:06:27.321Z,1.95
2023-04-04T15:08:29.065Z,1.90
2023-04-04T15:10:31.070Z,2.20
2023-04-04T15:12:32.823Z,1.70
2023-04-04T15:14:34.535Z,2.25
2023-04-04T15:16:36.624Z,2.58
2023-04-04T15:18:39.103Z,2.28
2023-04-04T15:20:41.045Z,1.98
2023-04-04T15:22:42.857Z,2.00
2023-04-04T15:24:44.711Z,1.80
2023-04-04T15:26:46.723Z,1.95
2023-04-04T15:28:49.539Z,2.42
2023-04-04T15:30:52.309Z,2.35
2023-04-04T15:32:55.904Z,2.08
2023-04-04T15:35:02.267Z,2.08
2023-04-04T15:37:04.438Z,2.05
2023-04-04T15:39:06.501Z,2.13
2023-04-04T15:41:09.302Z,1.80
2023-04-04T15:43:11.134Z,2.38
2023-04-04T15:45:14.221Z,1.88
2023-04-04T15:47:16.601Z,1.70
2023-04-04T15:49:18.343Z,2.33
2023-04-04T15:51:21.317Z,2.67
2023-04-04T15:53:23.192Z,2.03
2023-04-04T15:55:24.955Z,1.90
2023-04-04T15:57:27.325Z,2.15
2023-04-04T15:59:31.915Z,2.13
2023-04-04T16:01:34.657Z,2.20
2023-04-04T16:03:36.558Z,2.05
2023-04-04T16:05:38.341Z,2.10
2023-04-04T16:07:40.164Z,2.13
2023-04-04T16:09:41.935Z,2.40
2023-04-04T16:11:43.672Z,1.85
2023-04-04T16:13:45.366Z,2.25
2023-04-04T16:15:47.153Z,2.20
2023-04-04T16:17:49.031Z,2.17
2023-04-04T16:19:51.211Z,1.70
2023-04-04T16:21:53.049Z,2.08
2023-04-04T16:23:54.926Z,1.63
2023-04-04T16:25:56.793Z,1.73
2023-04-04T16:27:58.589Z,1.90
2023-04-04T16:30:00.821Z,1.75
2023-04-04T16:32:02.652Z,1.92
2023-04-04T16:34:04.481Z,1.70
2023-04-04T16:36:06.579Z,1.98
2023-04-04T16:38:09.091Z,1.98
2023-04-04T16:40:13.388Z,1.65
2023-04-04T16:42:19.522Z,1.90
2023-04-04T16:44:21.490Z,2.30
2023-04-04T16:46:23.217Z,2.42
2023-04-04T16:48:24.982Z,1.90
2023-04-04T16:50:27.149Z,2.20
2023-04-04T16:52:28.954Z,2.42
2023-04-04T16:54:30.733Z,1.98
2023-04-04T16:56:32.479Z,1.67
2023-04-04T16:58:34.246Z,1.77
2023-04-04T17:00:35.944Z,1.90
2023-04-04T17:02:45.668Z,2.38
2023-04-04T17:04:47.577Z,2.17
2023-04-04T17:06:49.359Z,2.33
2023-04-04T17:08:51.656Z,1.77
2023-04-04T17:10:53.436Z,1.90
2023-04-04T17:12:55.431Z,2.40
2023-04-04T17:14:57.273Z,1.63
2023-04-04T17:17:00.802Z,2.00
2023-04-04T17:19:02.626Z,1.80
2023-04-04T17:21:04.494Z,2.45
2023-04-04T17:23:06.253Z,1.70
2023-04-04T17:25:08.945Z,1.60
2023-04-04T17:27:10.966Z,1.60
2023-04-04T17:29:12.619Z,1.60
2023-04-04T17:31:16.873Z,2.13
2023-04-04T17:33:18.616Z,1.95
2023-04-04T17:35:20.507Z,1.92
2023-04-04T17:37:22.838Z,1.60
2023-04-04T17:39:24.546Z,1.98
2023-04-04T17:41:26.237Z,1.80
2023-04-04T17:43:27.976Z,1.58
2023-04-04T17:45:29.860Z,3.03
2023-04-04T17:47:32.482Z,2.47
2023-04-04T17:49:35.246Z,2.55
2023-04-04T17:51:39.706Z,2.33
2023-04-04T17:53:41.666Z,2.33
2023-04-04T17:55:43.670Z,2.22
2023-04-04T17:57:45.487Z,2.35
2023-04-04T17:59:49.865Z,2.03
2023-04-04T18:01:51.675Z,1.98
2023-04-04T18:03:53.621Z,2.28
2023-04-04T18:05:55.394Z,2.58
2023-04-04T18:07:58.334Z,2.15
2023-04-04T18:10:00.237Z,2.05
2023-04-04T18:12:02.674Z,2.63
2023-04-04T18:14:04.494Z,2.25
2023-04-04T18:16:07.483Z,2.40
2023-04-04T18:18:09.484Z,1.77
2023-04-04T18:20:16.379Z,2.13
2023-04-04T18:22:23.324Z,2.05
2023-04-04T18:24:26.072Z,1.90
2023-04-04T18:26:27.894Z,1.67
2023-04-04T18:28:29.682Z,2.17
2023-04-04T18:30:31.916Z,2.08
2023-04-04T18:32:33.700Z,1.90
2023-04-04T18:34:35.424Z,1.95
2023-04-04T18:36:37.894Z,1.85
2023-04-04T18:38:39.586Z,2.20
2023-04-04T18:40:42.030Z,2.40
2023-04-04T18:42:44.637Z,4.28
2023-04-04T18:44:46.584Z,2.35
2023-04-04T18:46:48.341Z,2.03
2023-04-04T18:48:50.254Z,2.97
2023-04-04T18:50:52.230Z,2.88
2023-04-04T18:52:54.549Z,3.75
2023-04-04T18:54:56.234Z,3.38
2023-04-04T18:56:58.054Z,4.47
2023-04-04T18:58:59.772Z,4.13
2023-04-04T19:01:04.646Z,4.00
2023-04-04T19:03:07.727Z,3.58
2023-04-04T19:05:12.441Z,3.45
2023-04-04T19:07:18.419Z,4.50
2023-04-04T19:09:20.729Z,3.03
2023-04-04T19:11:22.412Z,3.10
2023-04-04T19:13:24.263Z,3.55
2023-04-04T19:15:26.119Z,4.40
2023-04-04T19:17:27.977Z,4.25
2023-04-04T19:19:29.672Z,3.78
2023-04-04T19:21:32.205Z,5.05
2023-04-04T19:23:34.000Z,3.33
2023-04-04T19:25:35.833Z,3.58
2023-04-04T19:27:37.641Z,2.97
2023-04-04T19:29:39.429Z,3.60
2023-04-04T19:31:41.117Z,2.72
2023-04-04T19:33:42.805Z,3.58
2023-04-04T19:35:53.608Z,3.53
2023-04-04T19:37:55.825Z,3.58
2023-04-04T19:39:57.527Z,4.68
2023-04-04T19:42:00.298Z,4.82
2023-04-04T19:44:02.879Z,5.15
2023-04-04T19:46:09.622Z,5.72
2023-04-04T19:48:50.351Z,5.20
2023-04-04T19:50:52.049Z,5.25
2023-04-04T19:52:53.764Z,5.03
2023-04-04T19:54:55.497Z,5.10
2023-04-04T19:57:08.112Z,4.80
2023-04-04T19:59:48.602Z,4.68
2023-04-04T20:02:00.255Z,4.50
2023-04-04T20:04:10.158Z,5.95
2023-04-04T20:06:27.709Z,5.30
2023-04-04T20:08:36.675Z,8.10
2023-04-04T20:10:42.495Z,7.65
2023-04-04T20:12:44.466Z,9.27
2023-04-04T20:14:46.281Z,7.60
2023-04-04T20:16:48.950Z,7.05
2023-04-04T20:18:51.113Z,6.90
2023-04-04T20:21:14.256Z,7.65
2023-04-04T20:23:16.947Z,7.20
2023-04-04T20:25:41.339Z,6.72
2023-04-04T20:27:43.477Z,4.35
2023-04-04T20:29:45.170Z,4.15
2023-04-04T20:31:53.328Z,4.22
2023-04-04T20:33:55.088Z,3.45
2023-04-04T20:35:58.682Z,4.10
2023-04-04T20:38:00.547Z,3.53
2023-04-04T20:40:12.305Z,4.28
2023-04-04T20:42:34.210Z,3.25
2023-04-04T20:44:35.980Z,3.35
2023-04-04T20:46:37.690Z,5.35
2023-04-04T20:48:40.528Z,5.60
2023-04-04T20:50:43.451Z,6.53
2023-04-04T20:52:53.247Z,6.80
2023-04-04T20:54:55.047Z,5.63
2023-04-04T20:56:57.378Z,5.30
2023-04-04T20:58:59.481Z,5.07
2023-04-04T21:01:01.789Z,4.55
2023-04-04T21:03:10.230Z,4.63
2023-04-04T21:05:28.979Z,4.90
2023-04-04T21:07:41.833Z,5.00
2023-04-04T21:09:43.607Z,4.10
2023-04-04T21:11:45.777Z,4.40
2023-04-04T21:13:47.508Z,4.80
2023-04-04T21:15:49.372Z,4.93
2023-04-04T21:17:51.513Z,4.57
2023-04-04T21:19:53.327Z,3.83
2023-04-04T21:21:55.038Z,4.53
2023-04-04T21:23:58.946Z,3.13
2023-04-04T21:26:04.497Z,3.42
2023-04-04T21:28:06.682Z,3.60
2023-04-04T21:30:08.917Z,3.42
2023-04-04T21:32:10.931Z,4.10
2023-04-04T21:34:20.537Z,3.85
2023-04-04T21:36:29.609Z,4.40
2023-04-04T21:38:33.041Z,4.22
2023-04-04T21:40:36.177Z,4.00
2023-04-04T21:42:38.215Z,4.30
2023-04-04T21:44:39.980Z,4.60
2023-04-04T21:46:42.111Z,4.30
2023-04-04T21:48:44.030Z,4.47
2023-04-04T21:50:45.712Z,4.78
2023-04-04T21:52:47.513Z,4.07
2023-04-04T21:54:49.207Z,4.50
2023-04-04T21:56:50.944Z,3.75
2023-04-04T21:58:55.720Z,4.07
2023-04-04T22:00:57.455Z,4.28
2023-04-04T22:02:59.308Z,3.80
2023-04-04T22:05:01.130Z,4.25
2023-04-04T22:07:02.914Z,3.28
2023-04-04T22:09:05.388Z,3.90
2023-04-04T22:11:07.074Z,3.47
2023-04-04T22:13:08.881Z,3.92
2023-04-04T22:15:11.713Z,3.78
2023-04-04T22:17:22.905Z,3.05
2023-04-04T22:19:24.632Z,3.45
2023-04-04T22:21:27.837Z,3.15
2023-04-04T22:23:35.689Z,3.67
2023-04-04T22:25:37.541Z,4.05
2023-04-04T22:27:39.700Z,3.67
2023-04-04T22:29:41.579Z,3.35
2023-04-04T22:31:43.410Z,3.38
2023-04-04T22:33:45.639Z,3.33
2023-04-04T22:35:47.454Z,2.88
2023-04-04T22:37:49.199Z,3.47
2023-04-04T22:39:50.928Z,3.58
2023-04-04T22:41:52.622Z,4.07
2023-04-04T22:43:54.411Z,4.72
2023-04-04T22:45:56.386Z,2.90
2023-04-04T22:48:02.512Z,3.80
2023-04-04T22:50:06.141Z,3.22
2023-04-04T22:52:07.838Z,3.92
2023-04-04T22:54:09.681Z,3.60
2023-04-04T22:56:11.788Z,3.65
2023-04-04T22:58:13.560Z,3.40
2023-04-04T23:00:15.795Z,3.88
2023-04-04T23:02:17.583Z,3.90
2023-04-04T23:04:19.461Z,3.95
2023-04-04T23:06:22.110Z,4.03
2023-04-04T23:08:23.975Z,3.95
2023-04-04T23:10:25.789Z,4.35
2023-04-04T23:12:27.708Z,4.47
2023-04-04T23:14:30.912Z,4.68
2023-04-04T23:16:35.579Z,5.07
2023-04-04T23:18:37.282Z,5.30
2023-04-04T23:20:39.448Z,4.75
2023-04-04T23:22:41.776Z,4.38
2023-04-04T23:24:44.785Z,4.90
2023-04-04T23:26:46.511Z,3.88
2023-04-04T23:28:48.704Z,4.43
2023-04-04T23:30:50.843Z,4.65
2023-04-04T23:32:52.908Z,4.45
2023-04-04T23:34:54.634Z,5.13
2023-04-04T23:36:56.429Z,4.75
2023-04-04T23:38:58.178Z,4.47
2023-04-04T23:40:59.888Z,5.00
2023-04-04T23:43:01.652Z,4.93
2023-04-04T23:45:04.700Z,5.75
2023-04-04T23:47:06.696Z,5.10
2023-04-04T23:49:09.365Z,5.07
2023-04-04T23:51:15.995Z,5.03
2023-04-04T23:53:17.730Z,4.50
2023-04-04T23:55:19.601Z,4.50
2023-04-04T23:57:21.363Z,4.43
2023-04-04T23:59:23.117Z,5.82
